»·PEaware :: CFEGU KYKM-S31

CFEGU :: KYKM-S31

FLIGHT INFORMATION

Flight Status: Arrived
Operator: Unknown
More flights by this operator :: More flights under this callsign
Pilot: Vincent M. (370)
Aircraft: CESSNA 172 SKYHAWK
(C172)
More flights by this aircraft type
Origin: KYKM Yakima Air Term/Mcallister
United States
Destination: S31 Lopez Island
United States
More flights between these airports :: More routes between these airports
Route:
File this flight plan on PilotEdge
Remarks: Washington Alphabet Challenge
Altitude:
(Current/Filed)
8,500ft
Speed:
(Current/Filed)
110kts
Departed: 15-May-20 05:56 PM
Arrived: 15-May-20 07:34 PM
Distance/Time
Traveled:
150nm/1:38
Distance/Time
To Go:
Arrived

Flight Plot

Page will automatically refresh every two minutes.


Map Options




Map Legend


Flown Route
Filed Route
Departure Airport
Arrival Airport
Navaid (VOR, NDB)
Fix

Horizontal Profiles

Position Reports

Time Latitude Longitude Heading Altitude Ground
Speed
15-May-20 17:43 46.569847 -120.540433 107 1103ft 0kts
15-May-20 17:44 46.570290 -120.542892 107 1103ft 0kts
15-May-20 17:45 46.570290 -120.542892 107 1103ft 0kts
15-May-20 17:46 46.570290 -120.542892 107 1103ft 0kts
15-May-20 17:47 46.570290 -120.542892 107 1103ft 0kts
15-May-20 17:48 46.570290 -120.542892 107 1103ft 0kts
15-May-20 17:49 46.570252 -120.542798 131 1103ft 5kts
15-May-20 17:50 46.567836 -120.536116 110 1103ft 27kts
15-May-20 17:51 46.566469 -120.531531 178 1103ft 0kts
15-May-20 17:52 46.566469 -120.531531 178 1103ft 0kts
15-May-20 17:53 46.566469 -120.531531 178 1103ft 0kts
15-May-20 17:54 46.566462 -120.531530 177 1103ft 1kts
15-May-20 17:55 46.569968 -120.551396 282 1513ft 82kts
15-May-20 17:56 46.579567 -120.580943 302 2447ft 80kts
15-May-20 17:57 46.598739 -120.599568 332 3260ft 86kts
15-May-20 17:58 46.620621 -120.613579 332 4093ft 86kts
15-May-20 17:59 46.642731 -120.627301 332 4877ft 88kts
15-May-20 18:00 46.662881 -120.646055 319 5633ft 86kts
15-May-20 18:01 46.682566 -120.666032 319 6336ft 86kts
15-May-20 18:02 46.702209 -120.685924 318 7017ft 85kts
15-May-20 18:03 46.721514 -120.706780 315 7655ft 86kts
15-May-20 18:04 46.739551 -120.730014 312 8270ft 87kts
15-May-20 18:05 46.759380 -120.755261 316 8510ft 106kts
15-May-20 18:06 46.782591 -120.784513 316 8509ft 111kts
15-May-20 18:07 46.807218 -120.811495 322 8510ft 110kts
15-May-20 18:08 46.832549 -120.836604 322 8509ft 110kts
15-May-20 18:09 46.857964 -120.861708 323 8508ft 110kts
15-May-20 18:10 46.883376 -120.886788 323 8509ft 109kts
15-May-20 18:11 46.908704 -120.911706 323 8510ft 109kts
15-May-20 18:12 46.933518 -120.937919 318 8509ft 110kts
15-May-20 18:13 46.957337 -120.965873 318 8510ft 110kts
15-May-20 18:14 46.981203 -120.993807 318 8503ft 110kts
15-May-20 18:15 47.004875 -121.021380 319 8508ft 109kts
15-May-20 18:16 47.028748 -121.049226 318 8510ft 110kts
15-May-20 18:17 47.051731 -121.076310 318 8584ft 105kts
15-May-20 18:18 47.075618 -121.102485 321 8582ft 108kts
15-May-20 18:19 47.099973 -121.128139 322 8583ft 107kts
15-May-20 18:20 47.121824 -121.151284 322 8582ft 105kts
15-May-20 18:21 47.145833 -121.176536 323 8580ft 106kts
15-May-20 18:22 47.169948 -121.201868 322 8585ft 106kts
15-May-20 18:23 47.194239 -121.227244 322 8580ft 107kts
15-May-20 18:24 47.218519 -121.252642 321 8580ft 107kts
15-May-20 18:25 47.242096 -121.279027 316 8576ft 107kts
15-May-20 18:26 47.265095 -121.307490 316 8572ft 108kts
15-May-20 18:27 47.287867 -121.336227 316 8573ft 107kts
15-May-20 18:28 47.311733 -121.362552 324 8571ft 107kts
15-May-20 18:29 47.336628 -121.386808 324 8571ft 107kts
15-May-20 18:30 47.361067 -121.411920 321 8576ft 107kts
15-May-20 18:31 47.385220 -121.438092 321 8575ft 107kts
15-May-20 18:32 47.408721 -121.465249 316 8569ft 106kts
15-May-20 18:33 47.431565 -121.492906 318 8571ft 106kts
15-May-20 18:35 47.454634 -121.520712 318 8574ft 108kts
15-May-20 18:36 47.479064 -121.547441 322 8572ft 109kts
15-May-20 18:37 47.499496 -121.569839 323 8417ft 117kts
15-May-20 18:38 47.524599 -121.598375 322 8416ft 110kts
15-May-20 18:39 47.548741 -121.626044 323 8417ft 110kts
15-May-20 18:40 47.572399 -121.653039 322 8417ft 111kts
15-May-20 18:41 47.596938 -121.680965 322 8417ft 111kts
15-May-20 18:42 47.621515 -121.708876 322 8417ft 111kts
15-May-20 18:43 47.645759 -121.737513 321 8403ft 113kts
15-May-20 18:44 47.670994 -121.767155 323 7896ft 115kts
15-May-20 18:45 47.696929 -121.795131 325 7394ft 115kts
15-May-20 18:46 47.723312 -121.822331 325 6891ft 115kts
15-May-20 18:47 47.749605 -121.849373 325 6389ft 115kts
15-May-20 18:48 47.775889 -121.876344 326 5886ft 114kts
15-May-20 18:49 47.802030 -121.903206 322 5381ft 114kts
15-May-20 18:50 47.824601 -121.936308 315 4876ft 113kts
15-May-20 18:50 47.843094 -121.964039 315 4457ft 113kts
15-May-20 18:52 47.868264 -122.002970 311 4380ft 110kts
15-May-20 18:52 47.884965 -122.031726 311 4380ft 110kts
15-May-20 18:53 47.905350 -122.065992 313 4380ft 110kts
15-May-20 18:55 47.929664 -122.104908 313 4380ft 110kts
15-May-20 18:55 47.947572 -122.132147 315 4380ft 110kts
15-May-20 18:56 47.969269 -122.164430 315 4380ft 110kts
15-May-20 18:57 47.991259 -122.196377 317 4380ft 110kts
15-May-20 18:58 48.013821 -122.227584 318 4380ft 110kts
15-May-20 18:59 48.036306 -122.258637 318 4380ft 110kts
15-May-20 19:00 48.058877 -122.289765 318 4380ft 110kts
15-May-20 19:01 48.079881 -122.323078 313 4380ft 110kts
15-May-20 19:02 48.100380 -122.356071 313 4380ft 110kts
15-May-20 19:03 48.121412 -122.389878 313 4380ft 110kts
15-May-20 19:04 48.142360 -122.423504 314 4380ft 110kts
15-May-20 19:05 48.163317 -122.457102 314 4380ft 110kts
15-May-20 19:06 48.185274 -122.489342 318 4380ft 110kts
15-May-20 19:07 48.207862 -122.520704 318 4058ft 110kts
15-May-20 19:08 48.230255 -122.551760 318 3555ft 110kts
15-May-20 19:09 48.252728 -122.582867 318 3053ft 110kts
15-May-20 19:10 48.249925 -122.616457 188 2510ft 110kts
15-May-20 19:11 48.227919 -122.642905 224 2378ft 94kts
15-May-20 19:12 48.210150 -122.678960 255 2384ft 120kts
15-May-20 19:13 48.202620 -122.725031 256 2380ft 109kts
15-May-20 19:14 48.196559 -122.769614 272 2382ft 109kts
15-May-20 19:15 48.204011 -122.813329 293 2380ft 109kts
15-May-20 19:16 48.216162 -122.855205 294 2380ft 109kts
15-May-20 19:17 48.228291 -122.896928 294 2380ft 109kts
15-May-20 19:18 48.240495 -122.938836 294 2380ft 109kts
15-May-20 19:19 48.252836 -122.981116 294 2347ft 114kts
15-May-20 19:20 48.275637 -123.003903 356 1850ft 110kts
15-May-20 19:21 48.306327 -123.004555 6 1351ft 111kts
15-May-20 19:22 48.336584 -123.000312 5 1083ft 109kts
15-May-20 19:23 48.366421 -122.996127 5 1075ft 93kts
15-May-20 19:24 48.390628 -122.993030 5 1080ft 84kts
15-May-20 19:25 48.413614 -122.993230 355 1080ft 82kts
15-May-20 19:26 48.436353 -122.995851 355 1079ft 82kts
15-May-20 19:27 48.458923 -122.992382 8 1081ft 81kts
15-May-20 19:28 48.481427 -122.987718 8 1081ft 81kts
15-May-20 19:29 48.503955 -122.983000 8 1081ft 81kts
15-May-20 19:30 48.521053 -122.968168 83 1082ft 75kts
15-May-20 19:31 48.520416 -122.934821 133 1080ft 89kts
15-May-20 19:32 48.498486 -122.937601 181 475ft 74kts
15-May-20 19:33 48.482669 -122.937463 107 204ft 7kts
15-May-20 19:34 48.486414 -122.936791 23 204ft 26kts
15-May-20 19:35 48.486889 -122.936869 272 204ft 0kts
15-May-20 19:36 48.486889 -122.936869 272 204ft 0kts
15-May-20 19:37 48.486889 -122.936869 272 204ft 0kts
15-May-20 19:38 48.486889 -122.936869 272 204ft 0kts
15-May-20 19:39 48.486889 -122.936869 272 204ft 0kts
15-May-20 19:40 48.486889 -122.936869 272 204ft 0kts

Navigation Log

Ident Type
Flight plan parsing failed, navigation log unavailable